sensor_id;sensor_type;location;lat;lon;timestamp;P1;durP1;ratioP1;P2;durP2;ratioP2
25301;SDS011;13243;50.888;4.724;2023-04-03T00:04:57;13.48;;;7.15;;
25301;SDS011;13243;50.888;4.724;2023-04-03T00:09:59;12.65;;;6.38;;
25301;SDS011;13243;50.888;4.724;2023-04-03T00:15:01;15.27;;;7.10;;
25301;SDS011;13243;50.888;4.724;2023-04-03T00:20:03;11.45;;;6.38;;
25301;SDS011;13243;50.888;4.724;2023-04-03T00:25:06;12.85;;;6.63;;
25301;SDS011;13243;50.888;4.724;2023-04-03T00:30:09;11.60;;;6.32;;
25301;SDS011;13243;50.888;4.724;2023-04-03T00:35:14;12.23;;;6.80;;
25301;SDS011;13243;50.888;4.724;2023-04-03T00:40:19;11.80;;;6.15;;
25301;SDS011;13243;50.888;4.724;2023-04-03T00:45:25;13.23;;;6.72;;
25301;SDS011;13243;50.888;4.724;2023-04-03T00:50:34;9.60;;;5.60;;
25301;SDS011;13243;50.888;4.724;2023-04-03T00:55:39;10.27;;;6.55;;
25301;SDS011;13243;50.888;4.724;2023-04-03T01:00:42;11.00;;;6.20;;
25301;SDS011;13243;50.888;4.724;2023-04-03T01:05:47;8.77;;;5.95;;
25301;SDS011;13243;50.888;4.724;2023-04-03T01:10:49;12.73;;;6.03;;
25301;SDS011;13243;50.888;4.724;2023-04-03T01:15:51;10.75;;;6.25;;
25301;SDS011;13243;50.888;4.724;2023-04-03T01:26:14;8.95;;;4.07;;
25301;SDS011;13243;50.888;4.724;2023-04-03T01:31:27;9.52;;;5.50;;
25301;SDS011;13243;50.888;4.724;2023-04-03T01:36:34;8.70;;;5.32;;
25301;SDS011;13243;50.888;4.724;2023-04-03T01:41:36;11.82;;;6.38;;
25301;SDS011;13243;50.888;4.724;2023-04-03T01:46:38;25.40;;;6.00;;
25301;SDS011;13243;50.888;4.724;2023-04-03T01:51:40;7.72;;;5.63;;
25301;SDS011;13243;50.888;4.724;2023-04-03T01:56:42;9.25;;;6.10;;
25301;SDS011;13243;50.888;4.724;2023-04-03T02:01:44;10.80;;;6.15;;
25301;SDS011;13243;50.888;4.724;2023-04-03T02:06:46;14.63;;;5.80;;
25301;SDS011;13243;50.888;4.724;2023-04-03T02:11:48;15.75;;;6.20;;
25301;SDS011;13243;50.888;4.724;2023-04-03T02:16:50;14.80;;;5.90;;
25301;SDS011;13243;50.888;4.724;2023-04-03T02:21:52;15.35;;;6.03;;
25301;SDS011;13243;50.888;4.724;2023-04-03T02:26:53;13.88;;;5.32;;
25301;SDS011;13243;50.888;4.724;2023-04-03T02:31:56;10.38;;;6.00;;
25301;SDS011;13243;50.888;4.724;2023-04-03T02:36:57;8.98;;;5.63;;
25301;SDS011;13243;50.888;4.724;2023-04-03T02:41:59;10.55;;;5.65;;
25301;SDS011;13243;50.888;4.724;2023-04-03T02:47:01;11.05;;;5.05;;
25301;SDS011;13243;50.888;4.724;2023-04-03T02:52:04;14.05;;;5.75;;
25301;SDS011;13243;50.888;4.724;2023-04-03T02:57:06;10.43;;;6.00;;
25301;SDS011;13243;50.888;4.724;2023-04-03T03:02:10;8.43;;;5.53;;
25301;SDS011;13243;50.888;4.724;2023-04-03T03:07:12;22.85;;;6.72;;
25301;SDS011;13243;50.888;4.724;2023-04-03T03:12:14;11.45;;;5.65;;
25301;SDS011;13243;50.888;4.724;2023-04-03T03:17:16;11.27;;;5.97;;
25301;SDS011;13243;50.888;4.724;2023-04-03T03:22:19;9.68;;;6.18;;
25301;SDS011;13243;50.888;4.724;2023-04-03T03:27:21;8.90;;;5.82;;
25301;SDS011;13243;50.888;4.724;2023-04-03T03:32:23;8.88;;;5.78;;
25301;SDS011;13243;50.888;4.724;2023-04-03T03:37:25;10.52;;;5.97;;
25301;SDS011;13243;50.888;4.724;2023-04-03T03:42:28;12.95;;;6.75;;
25301;SDS011;13243;50.888;4.724;2023-04-03T03:47:29;14.80;;;6.15;;
25301;SDS011;13243;50.888;4.724;2023-04-03T03:52:31;9.70;;;6.30;;
25301;SDS011;13243;50.888;4.724;2023-04-03T03:57:33;10.10;;;5.90;;
25301;SDS011;13243;50.888;4.724;2023-04-03T04:02:35;17.27;;;7.40;;
25301;SDS011;13243;50.888;4.724;2023-04-03T04:07:37;13.18;;;6.10;;
25301;SDS011;13243;50.888;4.724;2023-04-03T04:12:39;11.43;;;6.60;;
25301;SDS011;13243;50.888;4.724;2023-04-03T04:17:42;11.55;;;6.60;;
25301;SDS011;13243;50.888;4.724;2023-04-03T04:22:44;10.25;;;6.97;;
25301;SDS011;13243;50.888;4.724;2023-04-03T04:27:46;10.35;;;6.57;;
25301;SDS011;13243;50.888;4.724;2023-04-03T04:32:48;10.93;;;6.78;;
25301;SDS011;13243;50.888;4.724;2023-04-03T04:37:50;14.35;;;6.47;;
25301;SDS011;13243;50.888;4.724;2023-04-03T04:42:51;11.80;;;6.50;;
25301;SDS011;13243;50.888;4.724;2023-04-03T04:47:55;10.57;;;6.40;;
25301;SDS011;13243;50.888;4.724;2023-04-03T04:52:57;12.23;;;7.07;;
25301;SDS011;13243;50.888;4.724;2023-04-03T04:57:59;14.93;;;7.28;;
25301;SDS011;13243;50.888;4.724;2023-04-03T05:03:00;10.88;;;6.43;;
25301;SDS011;13243;50.888;4.724;2023-04-03T05:08:03;15.45;;;6.50;;
25301;SDS011;13243;50.888;4.724;2023-04-03T05:13:06;13.90;;;6.88;;
25301;SDS011;13243;50.888;4.724;2023-04-03T05:18:08;11.18;;;7.13;;
25301;SDS011;13243;50.888;4.724;2023-04-03T05:23:10;13.65;;;7.93;;
25301;SDS011;13243;50.888;4.724;2023-04-03T05:28:12;13.20;;;7.38;;
25301;SDS011;13243;50.888;4.724;2023-04-03T05:33:14;13.32;;;6.85;;
25301;SDS011;13243;50.888;4.724;2023-04-03T05:38:16;13.95;;;7.50;;
25301;SDS011;13243;50.888;4.724;2023-04-03T05:43:18;13.05;;;7.82;;
25301;SDS011;13243;50.888;4.724;2023-04-03T05:48:20;14.10;;;7.65;;
25301;SDS011;13243;50.888;4.724;2023-04-03T05:53:23;10.82;;;7.05;;
25301;SDS011;13243;50.888;4.724;2023-04-03T05:58:28;19.10;;;7.63;;
25301;SDS011;13243;50.888;4.724;2023-04-03T06:03:30;11.30;;;7.43;;
25301;SDS011;13243;50.888;4.724;2023-04-03T06:08:32;13.55;;;8.05;;
25301;SDS011;13243;50.888;4.724;2023-04-03T06:13:35;15.20;;;8.68;;
25301;SDS011;13243;50.888;4.724;2023-04-03T06:18:37;17.30;;;8.32;;
25301;SDS011;13243;50.888;4.724;2023-04-03T06:23:39;17.25;;;8.73;;
25301;SDS011;13243;50.888;4.724;2023-04-03T06:28:41;16.83;;;9.13;;
25301;SDS011;13243;50.888;4.724;2023-04-03T06:33:43;21.23;;;10.35;;
25301;SDS011;13243;50.888;4.724;2023-04-03T06:38:45;19.13;;;10.95;;
25301;SDS011;13243;50.888;4.724;2023-04-03T06:43:48;20.00;;;11.43;;
25301;SDS011;13243;50.888;4.724;2023-04-03T06:48:49;21.23;;;11.15;;
25301;SDS011;13243;50.888;4.724;2023-04-03T06:53:52;21.95;;;10.45;;
25301;SDS011;13243;50.888;4.724;2023-04-03T06:58:56;17.70;;;11.07;;
25301;SDS011;13243;50.888;4.724;2023-04-03T07:03:59;19.10;;;10.27;;
25301;SDS011;13243;50.888;4.724;2023-04-03T07:09:02;17.38;;;10.00;;
25301;SDS011;13243;50.888;4.724;2023-04-03T07:14:04;16.42;;;9.30;;
25301;SDS011;13243;50.888;4.724;2023-04-03T07:19:07;18.58;;;9.52;;
25301;SDS011;13243;50.888;4.724;2023-04-03T07:24:10;13.43;;;8.32;;
25301;SDS011;13243;50.888;4.724;2023-04-03T07:29:16;13.60;;;8.35;;
25301;SDS011;13243;50.888;4.724;2023-04-03T07:34:18;15.07;;;8.35;;
25301;SDS011;13243;50.888;4.724;2023-04-03T07:39:20;14.00;;;8.73;;
25301;SDS011;13243;50.888;4.724;2023-04-03T07:44:22;11.63;;;7.25;;
25301;SDS011;13243;50.888;4.724;2023-04-03T07:49:24;13.20;;;7.32;;
25301;SDS011;13243;50.888;4.724;2023-04-03T07:54:27;13.82;;;7.72;;
25301;SDS011;13243;50.888;4.724;2023-04-03T07:59:30;18.13;;;7.57;;
25301;SDS011;13243;50.888;4.724;2023-04-03T08:04:32;11.10;;;6.32;;
25301;SDS011;13243;50.888;4.724;2023-04-03T08:09:34;10.50;;;5.95;;
25301;SDS011;13243;50.888;4.724;2023-04-03T08:14:36;13.30;;;5.90;;
25301;SDS011;13243;50.888;4.724;2023-04-03T08:19:38;11.68;;;5.93;;
25301;SDS011;13243;50.888;4.724;2023-04-03T08:24:41;10.48;;;5.90;;
25301;SDS011;13243;50.888;4.724;2023-04-03T08:29:58;17.80;;;6.13;;
25301;SDS011;13243;50.888;4.724;2023-04-03T08:35:01;10.38;;;5.18;;
25301;SDS011;13243;50.888;4.724;2023-04-03T08:40:04;6.97;;;4.40;;
25301;SDS011;13243;50.888;4.724;2023-04-03T08:45:15;5.95;;;4.35;;
25301;SDS011;13243;50.888;4.724;2023-04-03T08:50:49;9.02;;;3.88;;
25301;SDS011;13243;50.888;4.724;2023-04-03T08:55:53;7.47;;;4.18;;
25301;SDS011;13243;50.888;4.724;2023-04-03T09:01:07;7.20;;;3.40;;
25301;SDS011;13243;50.888;4.724;2023-04-03T09:06:20;4.90;;;2.90;;
25301;SDS011;13243;50.888;4.724;2023-04-03T09:11:26;6.18;;;3.00;;
25301;SDS011;13243;50.888;4.724;2023-04-03T09:21:39;8.50;;;3.28;;
25301;SDS011;13243;50.888;4.724;2023-04-03T09:26:48;6.72;;;3.00;;
25301;SDS011;13243;50.888;4.724;2023-04-03T09:32:01;9.38;;;3.17;;
25301;SDS011;13243;50.888;4.724;2023-04-03T09:37:32;5.63;;;2.97;;
25301;SDS011;13243;50.888;4.724;2023-04-03T09:42:40;7.25;;;3.17;;
25301;SDS011;13243;50.888;4.724;2023-04-03T09:47:48;7.88;;;3.22;;
25301;SDS011;13243;50.888;4.724;2023-04-03T09:53:07;6.07;;;2.70;;
25301;SDS011;13243;50.888;4.724;2023-04-03T09:58:40;9.48;;;2.80;;
25301;SDS011;13243;50.888;4.724;2023-04-03T10:04:08;8.68;;;2.90;;
25301;SDS011;13243;50.888;4.724;2023-04-03T10:14:21;9.18;;;2.85;;
25301;SDS011;13243;50.888;4.724;2023-04-03T10:29:56;6.13;;;2.42;;
25301;SDS011;13243;50.888;4.724;2023-04-03T10:46:02;4.03;;;1.85;;
25301;SDS011;13243;50.888;4.724;2023-04-03T10:51:16;4.70;;;2.00;;
25301;SDS011;13243;50.888;4.724;2023-04-03T10:56:30;4.65;;;1.85;;
25301;SDS011;13243;50.888;4.724;2023-04-03T11:01:33;2.92;;;1.45;;
25301;SDS011;13243;50.888;4.724;2023-04-03T11:06:47;4.50;;;1.75;;
25301;SDS011;13243;50.888;4.724;2023-04-03T11:12:00;1.75;;;1.10;;
25301;SDS011;13243;50.888;4.724;2023-04-03T11:27:59;2.47;;;1.30;;
25301;SDS011;13243;50.888;4.724;2023-04-03T11:38:25;4.40;;;1.35;;
25301;SDS011;13243;50.888;4.724;2023-04-03T11:43:30;5.55;;;1.33;;
25301;SDS011;13243;50.888;4.724;2023-04-03T11:48:43;5.40;;;1.27;;
25301;SDS011;13243;50.888;4.724;2023-04-03T11:53:48;7.07;;;1.20;;
25301;SDS011;13243;50.888;4.724;2023-04-03T11:59:36;2.35;;;1.38;;
25301;SDS011;13243;50.888;4.724;2023-04-03T12:04:15;2.45;;;1.00;;
25301;SDS011;13243;50.888;4.724;2023-04-03T12:09:32;3.33;;;1.27;;
25301;SDS011;13243;50.888;4.724;2023-04-03T12:14:41;4.18;;;1.13;;
25301;SDS011;13243;50.888;4.724;2023-04-03T12:19:42;2.05;;;1.00;;
25301;SDS011;13243;50.888;4.724;2023-04-03T12:24:47;1.63;;;0.95;;
25301;SDS011;13243;50.888;4.724;2023-04-03T12:29:53;1.92;;;1.00;;
25301;SDS011;13243;50.888;4.724;2023-04-03T12:35:16;1.73;;;1.10;;
25301;SDS011;13243;50.888;4.724;2023-04-03T12:50:53;2.78;;;1.55;;
25301;SDS011;13243;50.888;4.724;2023-04-03T12:55:57;5.63;;;1.85;;
25301;SDS011;13243;50.888;4.724;2023-04-03T13:01:22;6.05;;;1.23;;
25301;SDS011;13243;50.888;4.724;2023-04-03T13:06:48;5.47;;;1.77;;
25301;SDS011;13243;50.888;4.724;2023-04-03T13:11:52;4.40;;;1.73;;
25301;SDS011;13243;50.888;4.724;2023-04-03T13:17:13;4.90;;;1.60;;
25301;SDS011;13243;50.888;4.724;2023-04-03T13:27:31;4.03;;;1.38;;
25301;SDS011;13243;50.888;4.724;2023-04-03T13:32:34;3.22;;;1.20;;
25301;SDS011;13243;50.888;4.724;2023-04-03T13:37:37;4.85;;;1.40;;
25301;SDS011;13243;50.888;4.724;2023-04-03T13:42:39;3.53;;;1.52;;
25301;SDS011;13243;50.888;4.724;2023-04-03T13:47:43;6.47;;;2.05;;
25301;SDS011;13243;50.888;4.724;2023-04-03T13:52:53;3.67;;;1.42;;
25301;SDS011;13243;50.888;4.724;2023-04-03T13:58:02;3.28;;;1.38;;
25301;SDS011;13243;50.888;4.724;2023-04-03T14:03:33;2.95;;;1.42;;
25301;SDS011;13243;50.888;4.724;2023-04-03T14:08:41;5.63;;;1.23;;
25301;SDS011;13243;50.888;4.724;2023-04-03T14:13:45;2.72;;;1.30;;
25301;SDS011;13243;50.888;4.724;2023-04-03T14:18:48;10.38;;;2.00;;
25301;SDS011;13243;50.888;4.724;2023-04-03T14:23:51;5.05;;;1.98;;
25301;SDS011;13243;50.888;4.724;2023-04-03T14:28:53;4.95;;;2.13;;
25301;SDS011;13243;50.888;4.724;2023-04-03T14:33:56;5.53;;;2.10;;
25301;SDS011;13243;50.888;4.724;2023-04-03T14:38:58;7.68;;;1.80;;
25301;SDS011;13243;50.888;4.724;2023-04-03T14:44:02;2.42;;;1.65;;
25301;SDS011;13243;50.888;4.724;2023-04-03T14:49:09;5.47;;;1.33;;
25301;SDS011;13243;50.888;4.724;2023-04-03T14:54:20;3.60;;;1.77;;
25301;SDS011;13243;50.888;4.724;2023-04-03T14:59:27;6.03;;;1.70;;
25301;SDS011;13243;50.888;4.724;2023-04-03T15:04:30;3.17;;;1.60;;
25301;SDS011;13243;50.888;4.724;2023-04-03T15:09:34;3.50;;;2.22;;
25301;SDS011;13243;50.888;4.724;2023-04-03T15:14:37;3.50;;;1.50;;
25301;SDS011;13243;50.888;4.724;2023-04-03T15:19:42;3.20;;;1.55;;
25301;SDS011;13243;50.888;4.724;2023-04-03T15:24:44;3.75;;;1.50;;
25301;SDS011;13243;50.888;4.724;2023-04-03T15:29:46;2.10;;;1.58;;
25301;SDS011;13243;50.888;4.724;2023-04-03T15:34:48;3.45;;;1.77;;
25301;SDS011;13243;50.888;4.724;2023-04-03T15:39:51;2.05;;;1.40;;
25301;SDS011;13243;50.888;4.724;2023-04-03T15:44:53;4.10;;;1.70;;
25301;SDS011;13243;50.888;4.724;2023-04-03T15:49:55;5.75;;;2.05;;
25301;SDS011;13243;50.888;4.724;2023-04-03T15:54:59;4.60;;;1.60;;
25301;SDS011;13243;50.888;4.724;2023-04-03T16:00:01;4.07;;;2.03;;
25301;SDS011;13243;50.888;4.724;2023-04-03T16:05:03;4.75;;;1.60;;
25301;SDS011;13243;50.888;4.724;2023-04-03T16:10:06;4.65;;;1.83;;
25301;SDS011;13243;50.888;4.724;2023-04-03T16:15:09;4.05;;;1.50;;
25301;SDS011;13243;50.888;4.724;2023-04-03T16:20:11;5.50;;;1.92;;
25301;SDS011;13243;50.888;4.724;2023-04-03T16:25:14;2.80;;;1.38;;
25301;SDS011;13243;50.888;4.724;2023-04-03T16:30:16;3.85;;;1.63;;
25301;SDS011;13243;50.888;4.724;2023-04-03T16:35:18;3.13;;;1.70;;
25301;SDS011;13243;50.888;4.724;2023-04-03T16:40:20;4.30;;;1.80;;
25301;SDS011;13243;50.888;4.724;2023-04-03T16:45:22;3.50;;;1.35;;
25301;SDS011;13243;50.888;4.724;2023-04-03T16:50:24;3.28;;;1.92;;
25301;SDS011;13243;50.888;4.724;2023-04-03T16:55:26;4.35;;;1.98;;
25301;SDS011;13243;50.888;4.724;2023-04-03T17:00:30;3.53;;;1.50;;
25301;SDS011;13243;50.888;4.724;2023-04-03T17:05:32;7.40;;;1.67;;
25301;SDS011;13243;50.888;4.724;2023-04-03T17:10:34;6.00;;;1.55;;
25301;SDS011;13243;50.888;4.724;2023-04-03T17:15:36;5.40;;;1.67;;
25301;SDS011;13243;50.888;4.724;2023-04-03T17:20:39;6.10;;;2.35;;
25301;SDS011;13243;50.888;4.724;2023-04-03T17:25:41;6.63;;;2.55;;
25301;SDS011;13243;50.888;4.724;2023-04-03T17:30:43;5.32;;;2.20;;
25301;SDS011;13243;50.888;4.724;2023-04-03T17:35:45;5.35;;;1.92;;
25301;SDS011;13243;50.888;4.724;2023-04-03T17:40:46;3.85;;;1.65;;
25301;SDS011;13243;50.888;4.724;2023-04-03T17:45:48;3.95;;;1.55;;
25301;SDS011;13243;50.888;4.724;2023-04-03T17:50:53;2.55;;;1.45;;
25301;SDS011;13243;50.888;4.724;2023-04-03T17:55:55;3.00;;;1.50;;
25301;SDS011;13243;50.888;4.724;2023-04-03T18:00:56;3.35;;;1.90;;
25301;SDS011;13243;50.888;4.724;2023-04-03T18:06:01;2.45;;;1.55;;
25301;SDS011;13243;50.888;4.724;2023-04-03T18:11:07;4.93;;;1.65;;
25301;SDS011;13243;50.888;4.724;2023-04-03T18:16:10;3.42;;;1.60;;
25301;SDS011;13243;50.888;4.724;2023-04-03T18:21:13;3.72;;;1.42;;
25301;SDS011;13243;50.888;4.724;2023-04-03T18:26:15;9.70;;;1.98;;
25301;SDS011;13243;50.888;4.724;2023-04-03T18:31:21;3.22;;;1.70;;
25301;SDS011;13243;50.888;4.724;2023-04-03T18:36:25;5.05;;;1.77;;
25301;SDS011;13243;50.888;4.724;2023-04-03T18:41:30;4.22;;;1.83;;
25301;SDS011;13243;50.888;4.724;2023-04-03T18:46:33;3.63;;;1.70;;
25301;SDS011;13243;50.888;4.724;2023-04-03T18:51:36;2.85;;;1.55;;
25301;SDS011;13243;50.888;4.724;2023-04-03T18:56:41;5.88;;;2.58;;
25301;SDS011;13243;50.888;4.724;2023-04-03T19:01:43;5.78;;;1.90;;
25301;SDS011;13243;50.888;4.724;2023-04-03T19:06:45;3.15;;;1.58;;
25301;SDS011;13243;50.888;4.724;2023-04-03T19:11:47;3.47;;;1.63;;
25301;SDS011;13243;50.888;4.724;2023-04-03T19:16:48;4.20;;;1.90;;
25301;SDS011;13243;50.888;4.724;2023-04-03T19:21:51;8.40;;;2.40;;
25301;SDS011;13243;50.888;4.724;2023-04-03T19:26:52;3.08;;;1.80;;
25301;SDS011;13243;50.888;4.724;2023-04-03T19:31:54;5.40;;;2.13;;
25301;SDS011;13243;50.888;4.724;2023-04-03T19:36:56;2.53;;;1.60;;
25301;SDS011;13243;50.888;4.724;2023-04-03T19:41:58;3.50;;;1.70;;
25301;SDS011;13243;50.888;4.724;2023-04-03T19:47:01;11.25;;;2.55;;
25301;SDS011;13243;50.888;4.724;2023-04-03T19:52:06;5.70;;;2.40;;
25301;SDS011;13243;50.888;4.724;2023-04-03T19:57:08;4.30;;;1.60;;
25301;SDS011;13243;50.888;4.724;2023-04-03T20:02:10;5.57;;;1.73;;
25301;SDS011;13243;50.888;4.724;2023-04-03T20:07:12;3.67;;;1.95;;
25301;SDS011;13243;50.888;4.724;2023-04-03T20:12:13;4.82;;;1.85;;
25301;SDS011;13243;50.888;4.724;2023-04-03T20:17:15;5.28;;;1.50;;
25301;SDS011;13243;50.888;4.724;2023-04-03T20:22:17;4.28;;;2.38;;
25301;SDS011;13243;50.888;4.724;2023-04-03T20:27:19;6.18;;;1.80;;
25301;SDS011;13243;50.888;4.724;2023-04-03T20:32:21;4.18;;;2.00;;
25301;SDS011;13243;50.888;4.724;2023-04-03T20:37:23;5.18;;;2.10;;
25301;SDS011;13243;50.888;4.724;2023-04-03T20:42:26;5.45;;;2.00;;
25301;SDS011;13243;50.888;4.724;2023-04-03T20:47:28;6.93;;;1.85;;
25301;SDS011;13243;50.888;4.724;2023-04-03T20:52:30;5.20;;;2.00;;
25301;SDS011;13243;50.888;4.724;2023-04-03T20:57:34;2.95;;;1.77;;
25301;SDS011;13243;50.888;4.724;2023-04-03T21:02:36;6.57;;;2.03;;
25301;SDS011;13243;50.888;4.724;2023-04-03T21:24:09;5.95;;;2.42;;
25301;SDS011;13243;50.888;4.724;2023-04-03T21:29:11;5.65;;;2.55;;
25301;SDS011;13243;50.888;4.724;2023-04-03T21:34:13;6.35;;;2.40;;
25301;SDS011;13243;50.888;4.724;2023-04-03T21:39:15;3.70;;;1.92;;
25301;SDS011;13243;50.888;4.724;2023-04-03T21:44:18;4.35;;;2.25;;
25301;SDS011;13243;50.888;4.724;2023-04-03T21:49:21;3.63;;;2.17;;
25301;SDS011;13243;50.888;4.724;2023-04-03T21:54:24;3.25;;;1.80;;
25301;SDS011;13243;50.888;4.724;2023-04-03T21:59:26;5.32;;;2.20;;
25301;SDS011;13243;50.888;4.724;2023-04-03T22:04:28;10.57;;;2.50;;
25301;SDS011;13243;50.888;4.724;2023-04-03T22:09:33;8.70;;;2.92;;
25301;SDS011;13243;50.888;4.724;2023-04-03T22:14:34;4.18;;;2.10;;
25301;SDS011;13243;50.888;4.724;2023-04-03T22:19:36;5.75;;;2.40;;
25301;SDS011;13243;50.888;4.724;2023-04-03T22:24:39;3.47;;;1.85;;
25301;SDS011;13243;50.888;4.724;2023-04-03T22:29:41;5.95;;;1.90;;
25301;SDS011;13243;50.888;4.724;2023-04-03T22:34:42;8.70;;;1.85;;
25301;SDS011;13243;50.888;4.724;2023-04-03T22:39:44;6.28;;;2.38;;
25301;SDS011;13243;50.888;4.724;2023-04-03T22:44:47;7.10;;;2.20;;
25301;SDS011;13243;50.888;4.724;2023-04-03T22:49:48;4.45;;;2.03;;
25301;SDS011;13243;50.888;4.724;2023-04-03T22:54:50;7.72;;;2.15;;
25301;SDS011;13243;50.888;4.724;2023-04-03T22:59:52;4.00;;;1.92;;
25301;SDS011;13243;50.888;4.724;2023-04-03T23:04:54;3.38;;;1.67;;
25301;SDS011;13243;50.888;4.724;2023-04-03T23:09:57;2.08;;;1.50;;
25301;SDS011;13243;50.888;4.724;2023-04-03T23:14:59;3.90;;;2.08;;
25301;SDS011;13243;50.888;4.724;2023-04-03T23:20:01;5.40;;;1.85;;
25301;SDS011;13243;50.888;4.724;2023-04-03T23:25:03;4.65;;;1.90;;
25301;SDS011;13243;50.888;4.724;2023-04-03T23:30:05;5.90;;;1.83;;
25301;SDS011;13243;50.888;4.724;2023-04-03T23:35:07;6.53;;;1.80;;
25301;SDS011;13243;50.888;4.724;2023-04-03T23:40:09;10.13;;;1.80;;
25301;SDS011;13243;50.888;4.724;2023-04-03T23:45:11;3.90;;;2.15;;
25301;SDS011;13243;50.888;4.724;2023-04-03T23:50:13;5.70;;;1.95;;
25301;SDS011;13243;50.888;4.724;2023-04-03T23:55:16;7.88;;;2.00;;
